createdAt,value
2023-04-06T00:04:06.521Z,99.90
2023-04-06T00:06:09.409Z,99.90
2023-04-06T00:08:12.074Z,99.90
2023-04-06T00:10:15.043Z,99.90
2023-04-06T00:12:17.754Z,99.90
2023-04-06T00:14:20.553Z,99.90
2023-04-06T00:16:24.992Z,99.90
2023-04-06T00:18:27.720Z,99.90
2023-04-06T00:20:30.701Z,99.90
2023-04-06T00:22:33.569Z,99.90
2023-04-06T00:24:36.267Z,99.90
2023-04-06T00:26:38.971Z,99.90
2023-04-06T00:28:41.720Z,99.90
2023-04-06T00:30:44.426Z,99.90
2023-04-06T00:32:47.199Z,99.90
2023-04-06T00:34:50.167Z,99.90
2023-04-06T00:36:52.982Z,99.90
2023-04-06T00:38:55.921Z,99.90
2023-04-06T00:40:58.711Z,99.90
2023-04-06T00:43:01.394Z,99.90
2023-04-06T00:45:04.473Z,99.90
2023-04-06T00:47:07.288Z,99.90
2023-04-06T00:49:10.183Z,99.90
2023-04-06T00:51:12.924Z,99.90
2023-04-06T00:53:15.659Z,99.90
2023-04-06T00:55:18.554Z,99.90
2023-04-06T00:57:22.036Z,99.90
2023-04-06T00:59:27.617Z,99.90
2023-04-06T01:01:32.488Z,99.90
2023-04-06T01:03:37.053Z,99.90
2023-04-06T01:05:41.049Z,99.90
2023-04-06T01:07:46.703Z,99.90
2023-04-06T01:09:51.202Z,99.90
2023-04-06T01:11:56.563Z,99.90
2023-04-06T01:16:19.880Z,99.90
2023-04-06T01:18:27.236Z,99.90
2023-04-06T01:20:31.713Z,99.90
2023-04-06T01:22:35.313Z,99.90
2023-04-06T01:24:39.688Z,99.90
2023-04-06T01:26:44.364Z,99.90
2023-04-06T01:28:47.424Z,99.90
2023-04-06T01:30:51.897Z,99.90
2023-04-06T01:32:56.469Z,99.90
2023-04-06T01:35:01.065Z,99.90
2023-04-06T01:37:03.850Z,99.90
2023-04-06T01:39:07.170Z,99.90
2023-04-06T01:41:11.872Z,99.90
2023-04-06T01:43:16.356Z,99.90
2023-04-06T01:45:20.952Z,99.90
2023-04-06T01:47:24.132Z,99.90
2023-04-06T01:49:27.091Z,99.90
2023-04-06T01:51:31.789Z,99.90
2023-04-06T01:53:36.279Z,99.90
2023-04-06T01:55:40.764Z,99.90
2023-04-06T01:57:45.324Z,99.90
2023-04-06T01:59:49.840Z,99.90
2023-04-06T02:01:54.337Z,99.90
2023-04-06T02:03:57.097Z,99.90
2023-04-06T02:05:59.886Z,99.90
2023-04-06T02:08:04.608Z,99.90
2023-04-06T02:10:13.063Z,99.90
2023-04-06T02:12:15.801Z,99.90
2023-04-06T02:14:19.178Z,99.90
2023-04-06T02:16:23.693Z,99.90
2023-04-06T02:18:26.437Z,99.90
2023-04-06T02:20:29.167Z,99.90
2023-04-06T02:22:31.859Z,99.90
2023-04-06T02:24:36.046Z,99.90
2023-04-06T02:26:38.756Z,99.90
2023-04-06T02:28:41.504Z,99.90
2023-04-06T02:30:44.195Z,99.90
2023-04-06T02:32:47.198Z,99.90
2023-04-06T02:34:50.038Z,99.90
2023-04-06T02:36:53.238Z,99.90
2023-04-06T02:38:55.907Z,99.90
2023-04-06T02:40:58.587Z,99.90
2023-04-06T02:43:02.616Z,99.90
2023-04-06T02:45:07.991Z,99.90
2023-04-06T02:47:12.446Z,99.90
2023-04-06T02:49:15.653Z,99.90
2023-04-06T02:51:18.588Z,99.90
2023-04-06T02:53:23.098Z,99.90
2023-04-06T02:55:25.747Z,99.90
2023-04-06T02:57:28.421Z,99.90
2023-04-06T02:59:31.594Z,99.90
2023-04-06T03:01:36.556Z,99.90
2023-04-06T03:03:40.684Z,99.90
2023-04-06T03:05:45.190Z,99.90
2023-04-06T03:07:48.280Z,99.90
2023-04-06T03:09:52.730Z,99.90
2023-04-06T03:11:55.543Z,99.90
2023-04-06T03:13:59.624Z,99.90
2023-04-06T03:16:02.418Z,99.90
2023-04-06T03:18:05.661Z,99.90
2023-04-06T03:20:10.913Z,99.90
2023-04-06T03:22:13.623Z,99.90
2023-04-06T03:24:16.319Z,99.90
2023-04-06T03:26:19.236Z,99.90
2023-04-06T03:28:21.926Z,99.90
2023-04-06T03:30:27.031Z,99.90
2023-04-06T03:32:29.944Z,99.90
2023-04-06T03:34:32.748Z,99.90
2023-04-06T03:36:35.893Z,99.90
2023-04-06T03:38:40.840Z,99.90
2023-04-06T03:40:45.786Z,99.90
2023-04-06T03:42:48.604Z,99.90
2023-04-06T03:44:51.782Z,99.90
2023-04-06T03:46:54.902Z,99.90
2023-04-06T03:48:58.305Z,99.90
2023-04-06T03:51:01.089Z,99.90
2023-04-06T03:53:03.888Z,99.90
2023-04-06T03:55:08.160Z,99.90
2023-04-06T03:57:12.294Z,99.90
2023-04-06T03:59:15.535Z,99.90
2023-04-06T04:01:18.521Z,99.90
2023-04-06T04:03:22.100Z,99.90
2023-04-06T04:05:25.698Z,99.90
2023-04-06T04:07:28.466Z,99.90
2023-04-06T04:09:31.376Z,99.90
2023-04-06T04:11:34.052Z,99.90
2023-04-06T04:13:36.737Z,99.90
2023-04-06T04:15:40.504Z,99.90
2023-04-06T04:17:44.974Z,99.90
2023-04-06T04:19:47.790Z,99.90
2023-04-06T04:21:50.755Z,99.90
2023-04-06T04:23:55.257Z,99.90
2023-04-06T04:25:58.320Z,99.90
2023-04-06T04:28:01.015Z,99.90
2023-04-06T04:30:04.452Z,99.90
2023-04-06T04:32:07.146Z,99.90
2023-04-06T04:34:10.004Z,99.90
2023-04-06T04:36:12.709Z,99.90
2023-04-06T04:38:17.230Z,99.90
2023-04-06T04:40:20.214Z,99.90
2023-04-06T04:42:24.677Z,99.90
2023-04-06T04:44:28.840Z,99.90
2023-04-06T04:46:32.002Z,99.90
2023-04-06T04:48:35.306Z,99.90
2023-04-06T04:50:39.202Z,99.90
2023-04-06T04:52:41.968Z,99.90
2023-04-06T04:54:47.571Z,99.90
2023-04-06T04:56:52.121Z,99.90
2023-04-06T04:58:56.648Z,99.90
2023-04-06T05:00:59.802Z,99.90
2023-04-06T05:03:03.669Z,99.90
2023-04-06T05:05:09.187Z,99.90
2023-04-06T05:07:12.139Z,99.90
2023-04-06T05:09:16.351Z,99.90
2023-04-06T05:11:19.264Z,99.90
2023-04-06T05:15:40.623Z,99.90
2023-04-06T05:17:45.160Z,99.90
2023-04-06T05:19:49.790Z,99.90
2023-04-06T05:21:54.239Z,99.90
2023-04-06T05:23:58.140Z,99.90
2023-04-06T05:26:01.170Z,99.90
2023-04-06T05:28:03.854Z,99.90
2023-04-06T05:30:09.195Z,99.90
2023-04-06T05:32:14.133Z,99.90
2023-04-06T05:34:16.802Z,99.90
2023-04-06T05:36:19.480Z,99.90
2023-04-06T05:38:22.861Z,99.90
2023-04-06T05:40:25.831Z,99.90
2023-04-06T05:42:28.943Z,99.90
2023-04-06T05:44:33.545Z,99.90
2023-04-06T05:46:46.484Z,99.90
2023-04-06T05:48:51.008Z,99.90
2023-04-06T05:50:55.401Z,99.90
2023-04-06T05:53:00.948Z,99.90
2023-04-06T05:55:06.444Z,99.90
2023-04-06T05:57:09.347Z,99.90
2023-04-06T05:59:12.061Z,99.90
2023-04-06T06:01:15.716Z,99.90
2023-04-06T06:03:20.491Z,99.90
2023-04-06T06:05:25.271Z,99.90
2023-04-06T06:07:30.155Z,99.90
2023-04-06T06:09:34.600Z,99.90
2023-04-06T06:11:39.148Z,99.90
2023-04-06T06:13:42.292Z,99.90
2023-04-06T06:15:45.262Z,99.90
2023-04-06T06:17:48.794Z,99.90
2023-04-06T06:19:51.507Z,99.90
2023-04-06T06:21:54.271Z,99.90
2023-04-06T06:23:57.035Z,99.90
2023-04-06T06:26:01.431Z,99.90
2023-04-06T06:28:04.604Z,99.90
2023-04-06T06:30:08.575Z,99.90
2023-04-06T06:32:11.926Z,99.90
2023-04-06T06:34:14.759Z,99.90
2023-04-06T06:36:18.012Z,99.90
2023-04-06T06:38:23.377Z,99.90
2023-04-06T06:40:26.574Z,99.90
2023-04-06T06:42:29.950Z,99.90
2023-04-06T06:44:34.630Z,99.90
2023-04-06T06:46:37.414Z,99.90
2023-04-06T06:48:40.209Z,99.90
2023-04-06T06:50:42.901Z,99.90
2023-04-06T06:52:45.616Z,99.90
2023-04-06T06:54:48.294Z,99.90
2023-04-06T06:56:50.978Z,99.90
2023-04-06T06:58:54.191Z,99.90
2023-04-06T07:00:58.227Z,99.90
2023-04-06T07:03:01.406Z,99.90
2023-04-06T07:05:10.110Z,99.90
2023-04-06T07:07:09.243Z,99.90
2023-04-06T07:09:11.998Z,99.90
2023-04-06T07:11:15.418Z,99.90
2023-04-06T07:13:19.593Z,99.90
2023-04-06T07:15:23.448Z,99.90
2023-04-06T07:17:34.692Z,99.90
2023-04-06T07:20:00.396Z,99.90
2023-04-06T07:22:04.079Z,99.90
2023-04-06T07:24:13.605Z,99.90
2023-04-06T07:26:18.909Z,99.90
2023-04-06T07:28:21.688Z,99.90
2023-04-06T07:30:26.677Z,99.90
2023-04-06T07:32:29.506Z,99.90
2023-04-06T07:34:32.327Z,99.90
2023-04-06T07:36:36.458Z,99.90
2023-04-06T07:38:39.152Z,99.90
2023-04-06T07:40:42.335Z,99.90
2023-04-06T07:42:45.018Z,99.90
2023-04-06T07:44:49.230Z,99.90
2023-04-06T07:46:52.867Z,99.90
2023-04-06T07:48:57.513Z,99.90
2023-04-06T07:51:03.642Z,99.90
2023-04-06T07:53:06.694Z,99.90
2023-04-06T07:55:10.120Z,99.90
2023-04-06T07:57:12.850Z,99.90
2023-04-06T07:59:15.718Z,99.90
2023-04-06T08:01:18.404Z,99.90
2023-04-06T08:03:22.033Z,99.90
2023-04-06T08:05:24.880Z,99.90
2023-04-06T08:07:27.591Z,99.90
2023-04-06T08:09:30.576Z,99.90
2023-04-06T08:11:33.238Z,99.90
2023-04-06T08:13:36.194Z,99.90
2023-04-06T08:15:39.029Z,99.90
2023-04-06T08:17:42.027Z,99.90
2023-04-06T08:19:45.539Z,99.90
2023-04-06T08:21:48.401Z,99.90
2023-04-06T08:23:51.172Z,99.90
2023-04-06T08:25:54.528Z,99.90
2023-04-06T08:27:57.276Z,99.90
2023-04-06T08:29:59.936Z,99.90
2023-04-06T08:32:05.161Z,99.90
2023-04-06T08:34:10.935Z,99.90
2023-04-06T08:36:15.078Z,99.90
2023-04-06T08:38:18.067Z,99.90
2023-04-06T08:40:21.372Z,99.90
2023-04-06T08:42:26.579Z,99.90
2023-04-06T08:44:29.911Z,99.90
2023-04-06T08:46:32.761Z,99.90
2023-04-06T08:48:36.955Z,99.90
2023-04-06T08:50:40.913Z,99.90
2023-04-06T08:52:44.181Z,99.90
2023-04-06T08:54:46.907Z,99.90
2023-04-06T08:56:49.704Z,99.90
2023-04-06T09:01:09.026Z,99.90
2023-04-06T09:03:13.636Z,99.90
2023-04-06T09:05:16.756Z,99.90
2023-04-06T09:07:19.588Z,99.90
2023-04-06T09:09:24.757Z,99.00
2023-04-06T09:11:27.550Z,98.00
2023-04-06T09:13:31.416Z,99.60
2023-04-06T09:15:34.179Z,99.90
2023-04-06T09:17:37.111Z,98.90
2023-04-06T09:19:47.235Z,98.50
2023-04-06T09:21:49.935Z,98.60
2023-04-06T09:24:00.217Z,98.10
2023-04-06T09:26:10.120Z,96.50
2023-04-06T09:28:12.996Z,98.90
2023-04-06T09:30:17.288Z,97.10
2023-04-06T09:32:20.098Z,97.30
2023-04-06T09:34:23.705Z,96.80
2023-04-06T09:36:32.598Z,97.30
2023-04-06T09:38:35.436Z,95.00
2023-04-06T09:40:48.137Z,94.10
2023-04-06T09:42:46.632Z,95.00
2023-04-06T09:44:49.455Z,95.90
2023-04-06T09:47:00.203Z,95.70
2023-04-06T09:48:59.075Z,95.70
2023-04-06T09:51:07.061Z,93.30
2023-04-06T09:53:10.175Z,93.90
2023-04-06T09:55:13.159Z,93.30
2023-04-06T09:57:17.896Z,92.80
2023-04-06T09:59:22.432Z,93.80
2023-04-06T10:01:27.121Z,94.10
2023-04-06T10:03:31.854Z,92.70
2023-04-06T10:05:36.414Z,93.10
2023-04-06T10:07:46.471Z,91.00
2023-04-06T10:09:45.781Z,89.20
2023-04-06T10:11:48.768Z,91.70
2023-04-06T10:13:51.437Z,89.60
2023-04-06T10:15:55.133Z,92.90
2023-04-06T10:17:58.160Z,91.90
2023-04-06T10:20:02.667Z,90.70
2023-04-06T10:22:06.250Z,90.70
2023-04-06T10:24:11.160Z,89.40
2023-04-06T10:26:15.270Z,91.30
2023-04-06T10:28:19.846Z,92.20
2023-04-06T10:30:22.618Z,90.20
2023-04-06T10:32:33.326Z,90.30
2023-04-06T10:34:36.509Z,91.10
2023-04-06T10:36:39.220Z,91.70
2023-04-06T10:38:42.609Z,90.80
2023-04-06T10:40:47.159Z,91.40
2023-04-06T10:42:50.081Z,90.70
2023-04-06T10:44:52.791Z,90.30
2023-04-06T10:46:55.784Z,88.60
2023-04-06T10:49:00.595Z,85.20
2023-04-06T10:51:05.147Z,85.40
2023-04-06T10:53:07.883Z,85.50
2023-04-06T10:55:10.936Z,85.80
2023-04-06T10:57:22.257Z,87.00
2023-04-06T10:59:26.204Z,84.90
2023-04-06T11:01:29.187Z,83.70
2023-04-06T11:03:32.705Z,85.50
2023-04-06T11:07:50.784Z,83.70
2023-04-06T11:10:05.430Z,86.80
2023-04-06T11:11:58.294Z,87.90
2023-04-06T11:14:01.613Z,83.70
2023-04-06T11:16:04.889Z,84.20
2023-04-06T11:18:07.639Z,83.10
2023-04-06T11:20:11.705Z,89.60
2023-04-06T11:22:14.370Z,85.10
2023-04-06T11:24:17.767Z,84.00
2023-04-06T11:26:21.025Z,82.70
2023-04-06T11:28:24.042Z,83.70
2023-04-06T11:30:27.050Z,82.70
2023-04-06T11:32:30.028Z,81.70
2023-04-06T11:34:35.869Z,83.50
2023-04-06T11:36:41.715Z,84.70
2023-04-06T11:38:44.349Z,78.90
2023-04-06T11:40:47.152Z,79.60
2023-04-06T11:42:53.744Z,80.40
2023-04-06T11:44:56.924Z,79.80
2023-04-06T11:46:59.997Z,81.10
2023-04-06T11:49:03.694Z,85.60
2023-04-06T11:51:07.314Z,84.30
2023-04-06T11:53:10.043Z,81.00
2023-04-06T11:55:14.336Z,83.20
2023-04-06T11:57:17.410Z,82.70
2023-04-06T11:59:20.402Z,83.60
2023-04-06T12:01:23.119Z,83.30
2023-04-06T12:03:25.975Z,84.10
2023-04-06T12:05:29.047Z,80.60
2023-04-06T12:07:32.232Z,80.00
2023-04-06T12:09:36.410Z,79.40
2023-04-06T12:11:39.069Z,83.50
2023-04-06T12:13:41.748Z,82.70
2023-04-06T12:15:44.539Z,85.30
2023-04-06T12:17:47.239Z,80.10
2023-04-06T12:19:50.108Z,81.40
2023-04-06T12:21:53.320Z,76.20
2023-04-06T12:23:56.002Z,77.70
2023-04-06T12:25:58.684Z,79.40
2023-04-06T12:28:01.298Z,78.90
2023-04-06T12:30:04.494Z,80.50
2023-04-06T12:32:07.269Z,78.40
2023-04-06T12:34:09.964Z,78.90
2023-04-06T12:36:13.534Z,83.10
2023-04-06T12:38:16.466Z,77.30
2023-04-06T12:40:19.440Z,78.40
2023-04-06T12:42:22.095Z,79.10
2023-04-06T12:44:25.613Z,80.20
2023-04-06T12:46:31.085Z,82.60
2023-04-06T12:48:33.913Z,78.80
2023-04-06T12:50:36.596Z,82.40
2023-04-06T12:52:39.298Z,83.70
2023-04-06T12:54:42.652Z,79.60
2023-04-06T12:56:45.359Z,82.50
2023-04-06T12:58:48.016Z,79.90
2023-04-06T13:00:51.088Z,82.00
2023-04-06T13:02:53.939Z,79.80
2023-04-06T13:04:56.795Z,82.30
2023-04-06T13:06:59.480Z,80.90
2023-04-06T13:09:02.158Z,82.80
2023-04-06T13:11:05.236Z,85.10
2023-04-06T13:13:07.923Z,82.40
2023-04-06T13:15:11.576Z,86.30
2023-04-06T13:17:14.300Z,83.40
2023-04-06T13:19:17.005Z,86.30
2023-04-06T13:21:21.143Z,85.80
2023-04-06T13:23:23.975Z,84.40
2023-04-06T13:25:26.663Z,84.50
2023-04-06T13:27:29.352Z,86.50
2023-04-06T13:29:31.997Z,85.80
2023-04-06T13:31:34.832Z,84.50
2023-04-06T13:33:37.608Z,85.20
2023-04-06T13:35:40.284Z,89.30
2023-04-06T13:37:43.050Z,85.90
2023-04-06T13:39:45.773Z,87.20
2023-04-06T13:41:48.492Z,86.00
2023-04-06T13:43:51.187Z,87.00
2023-04-06T13:45:55.326Z,87.00
2023-04-06T13:47:58.075Z,90.30
2023-04-06T13:50:00.859Z,88.10
2023-04-06T13:52:03.613Z,88.20
2023-04-06T13:54:06.574Z,87.10
2023-04-06T13:56:09.322Z,88.60
2023-04-06T13:58:13.051Z,85.30
2023-04-06T14:00:16.156Z,86.70
2023-04-06T14:02:20.187Z,89.20
2023-04-06T14:04:22.822Z,90.90
2023-04-06T14:06:31.187Z,90.10
2023-04-06T14:08:29.612Z,90.30
2023-04-06T14:10:32.160Z,90.10
2023-04-06T14:12:34.808Z,90.60
2023-04-06T14:14:37.282Z,91.30
2023-04-06T14:16:40.517Z,89.70
2023-04-06T14:18:43.023Z,89.20
2023-04-06T14:20:45.567Z,89.20
2023-04-06T14:22:49.853Z,90.40
2023-04-06T14:24:52.346Z,90.50
2023-04-06T14:26:54.838Z,90.90
2023-04-06T14:28:57.406Z,90.50
2023-04-06T14:31:00.496Z,90.60
2023-04-06T14:33:03.099Z,90.60
2023-04-06T14:35:07.763Z,90.40
2023-04-06T14:37:11.415Z,90.80
2023-04-06T14:39:13.920Z,90.30
2023-04-06T14:41:17.528Z,91.00
2023-04-06T14:43:20.301Z,90.90
2023-04-06T14:45:23.093Z,90.90
2023-04-06T14:47:25.648Z,91.00
2023-04-06T14:49:28.192Z,91.10
2023-04-06T14:51:30.944Z,90.40
2023-04-06T14:53:33.478Z,88.60
2023-04-06T14:55:40.997Z,90.10
2023-04-06T14:57:43.514Z,90.10
2023-04-06T14:59:46.042Z,90.40
2023-04-06T15:01:49.040Z,88.70
2023-04-06T15:03:51.712Z,90.50
2023-04-06T15:05:54.867Z,90.10
2023-04-06T15:07:57.388Z,87.50
2023-04-06T15:10:00.150Z,89.70
2023-04-06T15:12:02.740Z,88.40
2023-04-06T15:14:07.003Z,88.50
2023-04-06T15:16:09.738Z,90.00
2023-04-06T15:18:12.969Z,90.20
2023-04-06T15:20:15.569Z,91.00
2023-04-06T15:22:18.090Z,91.30
2023-04-06T15:24:20.589Z,91.00
2023-04-06T15:26:23.260Z,91.30
2023-04-06T15:28:25.938Z,91.60
2023-04-06T15:30:28.556Z,91.20
2023-04-06T15:32:31.088Z,92.60
2023-04-06T15:34:34.480Z,91.80
2023-04-06T15:36:37.032Z,92.20
2023-04-06T15:38:39.521Z,92.60
2023-04-06T15:40:45.972Z,92.50
2023-04-06T15:42:48.654Z,92.90
2023-04-06T15:44:51.284Z,92.40
2023-04-06T15:46:53.922Z,93.00
2023-04-06T15:48:56.554Z,92.60
2023-04-06T15:50:59.165Z,92.70
2023-04-06T15:53:02.007Z,93.40
2023-04-06T15:55:05.646Z,94.20
2023-04-06T15:57:08.414Z,93.10
2023-04-06T15:59:10.996Z,93.60
2023-04-06T16:01:14.121Z,93.70
2023-04-06T16:03:16.891Z,93.90
2023-04-06T16:05:19.868Z,94.60
2023-04-06T16:07:22.443Z,95.50
2023-04-06T16:09:25.844Z,95.30
2023-04-06T16:11:28.444Z,95.80
2023-04-06T16:13:30.790Z,95.90
2023-04-06T16:15:33.526Z,96.30
2023-04-06T16:17:36.079Z,96.40
2023-04-06T16:19:38.639Z,96.50
2023-04-06T16:21:41.216Z,96.70
2023-04-06T16:23:44.719Z,97.10
2023-04-06T16:25:47.473Z,97.50
2023-04-06T16:27:50.070Z,97.50
2023-04-06T16:29:52.519Z,97.60
2023-04-06T16:31:55.244Z,97.80
2023-04-06T16:33:57.787Z,98.30
2023-04-06T16:36:00.930Z,98.30
2023-04-06T16:38:03.443Z,98.20
2023-04-06T16:40:07.830Z,98.40
2023-04-06T16:42:10.414Z,98.80
2023-04-06T16:44:12.891Z,98.80
2023-04-06T16:46:15.615Z,99.30
2023-04-06T16:48:18.416Z,99.90
2023-04-06T16:50:21.047Z,99.90
2023-04-06T16:52:23.600Z,99.90
2023-04-06T16:54:26.215Z,99.90
2023-04-06T16:56:28.728Z,99.90
2023-04-06T16:58:31.240Z,99.90
2023-04-06T17:00:33.960Z,99.90
2023-04-06T17:02:37.156Z,99.90
2023-04-06T17:04:39.774Z,99.90
2023-04-06T17:06:42.352Z,99.90
2023-04-06T17:08:45.525Z,99.90
2023-04-06T17:10:59.224Z,99.90
2023-04-06T17:12:52.705Z,99.90
2023-04-06T17:14:55.192Z,99.90
2023-04-06T17:16:57.986Z,99.90
2023-04-06T17:19:00.947Z,99.90
2023-04-06T17:21:04.794Z,99.90
2023-04-06T17:23:07.288Z,99.90
2023-04-06T17:25:10.499Z,99.90
2023-04-06T17:27:12.991Z,99.90
2023-04-06T17:29:15.707Z,99.90
2023-04-06T17:31:18.303Z,99.90
2023-04-06T17:33:21.534Z,99.90
2023-04-06T17:35:24.221Z,99.90
2023-04-06T17:37:26.852Z,99.90
2023-04-06T17:39:29.904Z,99.90
2023-04-06T17:41:33.811Z,99.90
2023-04-06T17:43:36.438Z,99.90
2023-04-06T17:45:38.891Z,99.90
2023-04-06T17:47:41.710Z,99.90
2023-04-06T17:49:44.497Z,99.90
2023-04-06T17:51:46.975Z,99.90
2023-04-06T17:53:49.497Z,99.90
2023-04-06T17:55:52.114Z,99.90
2023-04-06T17:57:54.587Z,99.90
2023-04-06T17:59:57.223Z,99.90
2023-04-06T18:01:59.943Z,99.90
2023-04-06T18:04:02.602Z,99.90
2023-04-06T18:06:12.099Z,99.90
2023-04-06T18:08:14.597Z,99.90
2023-04-06T18:10:17.222Z,99.90
2023-04-06T18:12:19.728Z,99.90
2023-04-06T18:14:22.292Z,99.90
2023-04-06T18:16:25.025Z,99.90
2023-04-06T18:18:28.389Z,99.90
2023-04-06T18:20:30.917Z,99.90
2023-04-06T18:22:33.917Z,99.90
2023-04-06T18:24:42.332Z,99.90
2023-04-06T18:26:40.795Z,99.90
2023-04-06T18:28:43.317Z,99.90
2023-04-06T18:30:45.758Z,99.90
2023-04-06T18:32:48.264Z,99.90
2023-04-06T18:34:51.539Z,99.90
2023-04-06T18:36:54.047Z,99.90
2023-04-06T18:38:56.641Z,99.90
2023-04-06T18:40:59.140Z,99.90
2023-04-06T18:43:02.262Z,99.90
2023-04-06T18:45:05.729Z,99.90
2023-04-06T18:47:08.401Z,99.90
2023-04-06T18:49:11.170Z,99.90
2023-04-06T18:51:13.776Z,99.90
2023-04-06T18:53:16.240Z,99.90
2023-04-06T18:55:19.150Z,99.90
2023-04-06T18:57:21.623Z,99.90
2023-04-06T18:59:25.934Z,99.90
2023-04-06T19:01:29.074Z,99.90
2023-04-06T19:03:31.820Z,99.90
2023-04-06T19:05:34.393Z,99.90
2023-04-06T19:07:36.967Z,99.90
2023-04-06T19:09:39.484Z,99.90
2023-04-06T19:11:41.947Z,99.90
2023-04-06T19:13:47.367Z,99.90
2023-04-06T19:15:50.067Z,99.90
2023-04-06T19:17:52.697Z,99.90
2023-04-06T19:19:57.066Z,99.90
2023-04-06T19:22:00.888Z,99.90
2023-04-06T19:24:03.402Z,99.90
2023-04-06T19:26:08.894Z,99.90
2023-04-06T19:28:13.150Z,99.90
2023-04-06T19:30:15.779Z,99.90
2023-04-06T19:32:18.382Z,99.90
2023-04-06T19:34:20.935Z,99.90
2023-04-06T19:36:23.639Z,99.90
2023-04-06T19:38:27.149Z,99.90
2023-04-06T19:40:30.420Z,99.90
2023-04-06T19:42:32.971Z,99.90
2023-04-06T19:44:35.881Z,99.90
2023-04-06T19:46:38.423Z,99.90
2023-04-06T19:48:41.152Z,99.90
2023-04-06T19:50:44.235Z,99.90
2023-04-06T19:52:46.717Z,99.90
2023-04-06T19:54:49.316Z,99.90
2023-04-06T19:56:51.784Z,99.90
2023-04-06T19:58:54.679Z,99.90
2023-04-06T20:00:57.165Z,99.90
2023-04-06T20:03:00.001Z,99.90
2023-04-06T20:05:02.694Z,99.90
2023-04-06T20:07:05.219Z,99.90
2023-04-06T20:09:07.849Z,99.90
2023-04-06T20:11:10.349Z,99.90
2023-04-06T20:13:12.852Z,99.90
2023-04-06T20:15:15.372Z,99.90
2023-04-06T20:17:17.878Z,99.90
2023-04-06T20:21:38.341Z,99.90
2023-04-06T20:23:41.217Z,99.90
2023-04-06T20:25:43.692Z,99.90
2023-04-06T20:27:46.220Z,99.90
2023-04-06T20:29:48.705Z,99.90
2023-04-06T20:31:51.784Z,99.90
2023-04-06T20:33:54.838Z,99.90
2023-04-06T20:35:57.890Z,99.90
2023-04-06T20:38:00.456Z,99.90
2023-04-06T20:40:03.873Z,99.90
2023-04-06T20:42:07.732Z,99.90
2023-04-06T20:44:10.220Z,99.90
2023-04-06T20:46:15.647Z,99.90
2023-04-06T20:48:18.477Z,99.90
2023-04-06T20:50:21.262Z,99.90
2023-04-06T20:52:23.932Z,99.90
2023-04-06T20:54:28.396Z,99.90
2023-04-06T20:56:35.496Z,99.90
2023-04-06T20:58:53.940Z,99.90
2023-04-06T21:00:56.644Z,99.90
2023-04-06T21:02:59.280Z,99.90
2023-04-06T21:05:02.098Z,99.90
2023-04-06T21:07:05.464Z,99.90
2023-04-06T21:09:08.204Z,99.90
2023-04-06T21:11:10.859Z,99.90
2023-04-06T21:13:13.762Z,99.90
2023-04-06T21:15:16.683Z,99.90
2023-04-06T21:17:19.433Z,99.90
2023-04-06T21:19:22.128Z,99.90
2023-04-06T21:21:24.760Z,99.90
2023-04-06T21:23:27.527Z,99.90
2023-04-06T21:25:30.416Z,99.90
2023-04-06T21:27:33.269Z,99.90
2023-04-06T21:29:36.025Z,99.90
2023-04-06T21:31:41.374Z,99.90
2023-04-06T21:33:44.331Z,99.90
2023-04-06T21:35:47.757Z,99.90
2023-04-06T21:37:50.644Z,99.90
2023-04-06T21:39:55.254Z,99.90
2023-04-06T21:41:58.135Z,99.90
2023-04-06T21:44:00.864Z,99.90
2023-04-06T21:46:03.749Z,99.90
2023-04-06T21:48:07.117Z,99.90
2023-04-06T21:50:10.555Z,99.90
2023-04-06T21:52:13.932Z,99.90
2023-04-06T21:54:18.212Z,99.90
2023-04-06T21:56:22.760Z,99.90
2023-04-06T21:58:26.857Z,99.90
2023-04-06T22:00:31.637Z,99.90
2023-04-06T22:02:36.420Z,99.90
2023-04-06T22:04:40.907Z,99.90
2023-04-06T22:06:45.821Z,99.90
2023-04-06T22:08:50.319Z,99.90
2023-04-06T22:10:54.432Z,99.90
2023-04-06T22:12:58.424Z,99.90
2023-04-06T22:15:01.860Z,99.90
2023-04-06T22:17:05.145Z,99.90
2023-04-06T22:19:08.364Z,99.90
2023-04-06T22:21:11.918Z,99.90
2023-04-06T22:23:16.634Z,99.90
2023-04-06T22:25:20.400Z,99.90
2023-04-06T22:27:23.774Z,99.90
2023-04-06T22:29:27.360Z,99.90
2023-04-06T22:31:34.576Z,99.90
2023-04-06T22:33:54.010Z,99.90
2023-04-06T22:36:32.071Z,99.90
2023-04-06T22:38:36.932Z,99.90
2023-04-06T22:40:39.700Z,99.90
2023-04-06T22:42:42.194Z,99.90
2023-04-06T22:44:45.158Z,99.90
2023-04-06T22:46:47.645Z,99.90
2023-04-06T22:48:50.078Z,99.90
2023-04-06T22:50:52.595Z,99.90
2023-04-06T22:53:13.229Z,99.90
2023-04-06T22:55:36.230Z,99.90
2023-04-06T22:57:57.796Z,99.90
2023-04-06T23:00:08.194Z,99.90
2023-04-06T23:02:13.935Z,99.90
2023-04-06T23:04:17.905Z,99.90
2023-04-06T23:06:21.877Z,99.90
2023-04-06T23:08:25.143Z,99.90
2023-04-06T23:10:28.134Z,99.90
2023-04-06T23:12:31.957Z,99.90
2023-04-06T23:14:34.947Z,99.90
2023-04-06T23:16:37.806Z,99.90
2023-04-06T23:18:40.950Z,99.90
2023-04-06T23:20:44.931Z,99.90
2023-04-06T23:22:49.109Z,99.90
2023-04-06T23:24:51.735Z,99.90
2023-04-06T23:26:54.620Z,99.90
2023-04-06T23:28:57.270Z,99.90
2023-04-06T23:31:00.027Z,99.90
2023-04-06T23:33:02.706Z,99.90
2023-04-06T23:35:06.287Z,99.90
2023-04-06T23:55:17.168Z,99.90
2023-04-06T23:57:21.217Z,99.90
2023-04-06T23:59:27.360Z,99.90
